Time,TemperatureF,DewpointF,PressureIn,WindDirection,WindDirectionDegrees,WindSpeedMPH,WindSpeedGustMPH,Humidity,HourlyPrecipIn,Conditions,Clouds,dailyrainin,SoftwareType,DateUTC
2013-07-17 00:42:00,68.0,15.0,-100.00,NNE,21,0.0,2.0,13,-99.99,,,-99.99,,2013-07-17 07:42:00,
2013-07-17 01:32:00,66.0,12.0,-100.00,ENE,75,2.0,4.0,12,-99.99,,,-99.99,,2013-07-17 08:32:00,
2013-07-17 01:42:00,67.0,9.0,-100.00,WNW,291,0.0,2.0,10,-99.99,,,-99.99,,2013-07-17 08:42:00,
2013-07-17 02:11:00,67.0,9.0,-100.00,ENE,59,0.0,1.0,10,-99.99,,,-99.99,,2013-07-17 09:11:00,
2013-07-17 02:22:00,67.0,9.0,-100.00,ENE,59,0.0,1.0,10,-99.99,,,-99.99,,2013-07-17 09:22:00,
2013-07-17 03:43:00,66.0,6.0,-100.00,NNE,17,1.0,2.0,9,-99.99,,,-99.99,,2013-07-17 10:43:00,
2013-07-17 03:52:00,66.0,6.0,-100.00,NNE,25,2.0,4.0,9,-99.99,,,-99.99,,2013-07-17 10:52:00,
2013-07-17 04:52:00,67.0,4.0,-100.00,North,6,1.0,2.0,8,-99.99,,,-99.99,,2013-07-17 11:52:00,
2013-07-17 05:53:00,67.0,4.0,-100.00,North,4,1.0,3.0,8,-99.99,,,-99.99,,2013-07-17 12:53:00,
2013-07-17 06:52:00,67.0,4.0,-100.00,North,354,2.0,3.0,8,-99.99,,,-99.99,,2013-07-17 13:52:00,
2013-07-17 08:01:00,73.0,5.0,-100.00,NNE,25,1.0,3.0,7,-99.99,,,-99.99,,2013-07-17 15:01:00,
2013-07-17 08:12:00,75.0,7.0,-100.00,ENE,67,2.0,3.0,7,-99.99,,,-99.99,,2013-07-17 15:12:00,
2013-07-17 08:21:00,74.0,9.0,-100.00,ENE,60,2.0,4.0,8,-99.99,,,-99.99,,2013-07-17 15:21:00,
2013-07-17 08:32:00,74.0,9.0,-100.00,ENE,60,2.0,4.0,8,-99.99,,,-99.99,,2013-07-17 15:32:00,
2013-07-17 08:52:00,77.0,8.0,-100.00,NE,53,4.0,6.0,7,-99.99,,,-99.99,,2013-07-17 15:52:00,
2013-07-17 09:01:00,77.0,8.0,-100.00,NE,53,4.0,6.0,7,-99.99,,,-99.99,,2013-07-17 16:01:00,
2013-07-17 09:11:00,77.0,8.0,-100.00,NE,53,4.0,6.0,7,-99.99,,,-99.99,,2013-07-17 16:11:00,
2013-07-17 09:33:00,79.0,2.0,-100.00,NNE,16,3.0,7.0,5,-99.99,,,-99.99,,2013-07-17 16:33:00,
2013-07-17 09:42:00,81.0,4.0,-100.00,North,2,2.0,6.0,5,-99.99,,,-99.99,,2013-07-17 16:42:00,
2013-07-17 10:01:00,81.0,8.0,-100.00,SE,124,3.0,9.0,6,-99.99,,,-99.99,,2013-07-17 17:01:00,
2013-07-17 10:32:00,82.0,8.0,-100.00,WSW,244,3.0,8.0,6,-99.99,,,-99.99,,2013-07-17 17:32:00,
2013-07-17 11:11:00,84.0,10.0,-100.00,North,351,3.0,8.0,6,-99.99,,,-99.99,,2013-07-17 18:11:00,
2013-07-17 11:22:00,85.0,11.0,-100.00,ESE,113,3.0,7.0,6,-99.99,,,-99.99,,2013-07-17 18:22:00,
2013-07-17 11:32:00,85.0,11.0,-100.00,ESE,113,3.0,7.0,6,-99.99,,,-99.99,,2013-07-17 18:32:00,
2013-07-17 11:43:00,85.0,11.0,-100.00,ESE,113,3.0,7.0,6,-99.99,,,-99.99,,2013-07-17 18:43:00,
2013-07-17 11:52:00,85.0,11.0,-100.00,West,265,3.0,7.0,6,-99.99,,,-99.99,,2013-07-17 18:52:00,
2013-07-17 12:01:00,86.0,15.0,-100.00,SW,229,2.0,9.0,7,-99.99,,,-99.99,,2013-07-17 19:01:00,
2013-07-17 12:11:00,86.0,15.0,-100.00,SW,229,2.0,9.0,7,-99.99,,,-99.99,,2013-07-17 19:11:00,
2013-07-17 12:22:00,86.0,18.0,-100.00,SW,231,4.0,9.0,8,-99.99,,,-99.99,,2013-07-17 19:22:00,
2013-07-17 12:32:00,86.0,18.0,-100.00,SW,231,4.0,9.0,8,-99.99,,,-99.99,,2013-07-17 19:32:00,
2013-07-17 12:43:00,86.0,21.0,-100.00,SW,235,4.0,11.0,9,-99.99,,,-99.99,,2013-07-17 19:43:00,
2013-07-17 13:11:00,85.0,22.0,-100.00,WSW,240,4.0,11.0,10,-99.99,,,-99.99,,2013-07-17 20:11:00,
2013-07-17 13:22:00,86.0,23.0,-100.00,SW,232,4.0,10.0,10,-99.99,,,-99.99,,2013-07-17 20:22:00,
2013-07-17 13:33:00,86.0,23.0,-100.00,WSW,241,4.0,9.0,10,-99.99,,,-99.99,,2013-07-17 20:33:00,
2013-07-17 13:43:00,87.0,26.0,-100.00,WSW,244,3.0,11.0,11,-99.99,,,-99.99,,2013-07-17 20:43:00,
2013-07-17 13:52:00,87.0,26.0,-100.00,SW,235,3.0,10.0,11,-99.99,,,-99.99,,2013-07-17 20:52:00,
2013-07-17 14:11:00,87.0,30.0,-100.00,WSW,243,4.0,9.0,13,-99.99,,,-99.99,,2013-07-17 21:11:00,
2013-07-17 14:32:00,88.0,33.0,-100.00,WNW,293,3.0,9.0,14,-99.99,,,-99.99,,2013-07-17 21:32:00,
2013-07-17 14:52:00,88.0,35.0,-100.00,NW,322,2.0,6.0,15,-99.99,,,-99.99,,2013-07-17 21:52:00,
2013-07-17 15:11:00,86.0,38.0,-100.00,WNW,295,4.0,11.0,18,-99.99,,,-99.99,,2013-07-17 22:11:00,
2013-07-17 15:21:00,86.0,38.0,-100.00,WNW,295,4.0,11.0,18,-99.99,,,-99.99,,2013-07-17 22:21:00,
2013-07-17 15:43:00,85.0,38.0,-100.00,NNW,327,3.0,9.0,19,-99.99,,,-99.99,,2013-07-17 22:43:00,
2013-07-17 16:11:00,85.0,38.0,-100.00,NW,306,3.0,10.0,19,-99.99,,,-99.99,,2013-07-17 23:11:00,
2013-07-17 16:42:00,84.0,34.0,-100.00,NW,319,3.0,9.0,17,-99.99,,,-99.99,,2013-07-17 23:42:00,
2013-07-17 16:52:00,84.0,34.0,-100.00,NW,319,3.0,9.0,17,-99.99,,,-99.99,,2013-07-17 23:52:00,
2013-07-17 17:01:00,83.0,34.0,-100.00,WNW,291,4.0,7.0,17,-99.99,,,-99.99,,2013-07-18 00:01:00,
2013-07-17 17:10:00,83.0,36.0,-100.00,NW,309,2.0,6.0,19,-99.99,,,-99.99,,2013-07-18 00:10:00,
2013-07-17 17:11:00,83.0,34.0,-100.00,WNW,291,4.0,7.0,17,-99.99,,,-99.99,,2013-07-18 00:11:00,
2013-07-17 17:22:00,84.0,34.0,-100.00,NW,312,3.0,8.0,17,-99.99,,,-99.99,,2013-07-18 00:22:00,
2013-07-17 17:32:00,84.0,34.0,-100.00,NW,312,3.0,8.0,17,-99.99,,,-99.99,,2013-07-18 00:32:00,
2013-07-17 17:40:00,81.0,36.0,-100.00,NW,316,3.0,8.0,20,-99.99,,,-99.99,,2013-07-18 00:40:00,
2013-07-17 17:52:00,83.0,36.0,-100.00,NW,309,2.0,6.0,19,-99.99,,,-99.99,,2013-07-18 00:52:00,
2013-07-17 18:01:00,83.0,36.0,-100.00,NW,309,2.0,6.0,19,-99.99,,,-99.99,,2013-07-18 01:01:00,
2013-07-17 18:22:00,81.0,36.0,-100.00,NW,316,3.0,8.0,20,-99.99,,,-99.99,,2013-07-18 01:22:00,
2013-07-17 18:32:00,81.0,36.0,-100.00,NW,316,3.0,8.0,20,-99.99,,,-99.99,,2013-07-18 01:32:00,
2013-07-17 19:01:00,78.0,36.0,-100.00,WNW,286,3.0,6.0,22,-99.99,,,-99.99,,2013-07-18 02:01:00,
2013-07-17 19:11:00,78.0,36.0,-100.00,WNW,286,3.0,6.0,22,-99.99,,,-99.99,,2013-07-18 02:11:00,
2013-07-17 19:32:00,75.0,37.0,-100.00,NNW,346,3.0,8.0,25,-99.99,,,-99.99,,2013-07-18 02:32:00,
2013-07-17 20:01:00,73.0,38.0,-100.00,NW,321,4.0,7.0,28,-99.99,,,-99.99,,2013-07-18 03:01:00,
2013-07-17 20:11:00,73.0,38.0,-100.00,NW,321,4.0,7.0,28,-99.99,,,-99.99,,2013-07-18 03:11:00,
2013-07-17 20:32:00,72.0,39.0,-100.00,NW,325,4.0,6.0,30,-99.99,,,-99.99,,2013-07-18 03:32:00,
2013-07-17 20:52:00,70.0,39.0,-100.00,NW,323,7.0,10.0,32,-99.99,,,-99.99,,2013-07-18 03:52:00,
2013-07-17 21:12:00,70.0,39.0,-100.00,WNW,302,8.0,10.0,32,-99.99,,,-99.99,,2013-07-18 04:12:00,
2013-07-17 21:32:00,70.0,38.0,-100.00,NW,322,6.0,8.0,31,-99.99,,,-99.99,,2013-07-18 04:32:00,
2013-07-17 21:43:00,70.0,38.0,-100.00,NNW,333,6.0,8.0,31,-99.99,,,-99.99,,2013-07-18 04:43:00,
2013-07-17 21:52:00,70.0,38.0,-100.00,NNW,333,6.0,8.0,31,-99.99,,,-99.99,,2013-07-18 04:52:00,
2013-07-17 22:01:00,70.0,39.0,-100.00,North,350,5.0,6.0,32,-99.99,,,-99.99,,2013-07-18 05:01:00,
2013-07-17 22:32:00,69.0,38.0,-100.00,North,350,5.0,6.0,32,-99.99,,,-99.99,,2013-07-18 05:32:00,
2013-07-17 23:01:00,68.0,36.0,-100.00,North,357,4.0,5.0,31,-99.99,,,-99.99,,2013-07-18 06:01:00,
2013-07-17 23:22:00,68.0,36.0,-100.00,NNW,347,5.0,7.0,31,-99.99,,,-99.99,,2013-07-18 06:22:00,
2013-07-17 23:32:00,68.0,36.0,-100.00,NNW,347,5.0,7.0,31,-99.99,,,-99.99,,2013-07-18 06:32:00,
2013-07-17 23:40:00,67.0,34.0,-100.00,NNW,343,5.0,8.0,29,-99.99,,,-99.99,,2013-07-18 06:40:00,
2013-07-17 23:43:00,68.0,36.0,-100.00,NNW,342,4.0,7.0,31,-99.99,,,-99.99,,2013-07-18 06:43:00,
2013-07-17 23:52:00,68.0,36.0,-100.00,NNW,342,4.0,7.0,31,-99.99,,,-99.99,,2013-07-18 06:52:00,